sensor_id;sensor_type;location;lat;lon;timestamp;pressure;altitude;pressure_sealevel;temperature;humidity
15260;BME280;34462;51.368;12.364;2023-09-08T00:00:06;21057.84;;;-141.84;71.57
15260;BME280;34462;51.368;12.364;2023-09-08T00:02:36;21086.31;;;-141.84;71.51
15260;BME280;34462;51.368;12.364;2023-09-08T00:05:04;21041.56;;;-141.84;71.83
15260;BME280;34462;51.368;12.364;2023-09-08T00:07:32;21015.16;;;-141.84;72.11
15260;BME280;34462;51.368;12.364;2023-09-08T00:10:00;21015.16;;;-141.84;72.18
15260;BME280;34462;51.368;12.364;2023-09-08T00:12:30;20972.47;;;-141.84;72.24
15260;BME280;34462;51.368;12.364;2023-09-08T00:14:58;21023.28;;;-141.84;72.40
15260;BME280;34462;51.368;12.364;2023-09-08T00:17:28;20982.63;;;-141.84;72.66
15260;BME280;34462;51.368;12.364;2023-09-08T00:19:57;20954.16;;;-141.84;72.60
15260;BME280;34462;51.368;12.364;2023-09-08T00:22:25;20976.53;;;-141.84;72.73
15260;BME280;34462;51.368;12.364;2023-09-08T00:24:54;20917.56;;;-141.84;73.44
15260;BME280;34462;51.368;12.364;2023-09-08T00:27:22;20921.63;;;-141.84;73.59
15260;BME280;34462;51.368;12.364;2023-09-08T00:29:51;20968.38;;;-141.84;73.04
15260;BME280;34462;51.368;12.364;2023-09-08T00:32:20;20935.88;;;-141.84;73.01
15260;BME280;34462;51.368;12.364;2023-09-08T00:34:48;20889.09;;;-141.84;73.25
15260;BME280;34462;51.368;12.364;2023-09-08T00:37:16;20915.53;;;-141.84;73.38
15260;BME280;34462;51.368;12.364;2023-09-08T00:39:45;20901.31;;;-141.84;73.21
15260;BME280;34462;51.368;12.364;2023-09-08T00:42:13;20913.50;;;-141.84;73.36
15260;BME280;34462;51.368;12.364;2023-09-08T00:44:41;20905.38;;;-141.84;73.92
15260;BME280;34462;51.368;12.364;2023-09-08T00:47:11;20891.13;;;-141.84;74.23
15260;BME280;34462;51.368;12.364;2023-09-08T00:49:39;20895.19;;;-141.84;74.04
15260;BME280;34462;51.368;12.364;2023-09-08T00:52:08;20824.06;;;-141.84;74.33
15260;BME280;34462;51.368;12.364;2023-09-08T00:54:36;20840.31;;;-141.84;74.24
15260;BME280;34462;51.368;12.364;2023-09-08T00:57:06;20846.41;;;-141.84;74.29
15260;BME280;34462;51.368;12.364;2023-09-08T00:59:35;20842.34;;;-141.84;74.12
15260;BME280;34462;51.368;12.364;2023-09-08T01:02:03;20866.75;;;-141.84;73.99
15260;BME280;34462;51.368;12.364;2023-09-08T01:04:33;20854.53;;;-141.84;74.32
15260;BME280;34462;51.368;12.364;2023-09-08T01:07:02;20815.91;;;-141.84;74.40
15260;BME280;34462;51.368;12.364;2023-09-08T01:09:30;20824.06;;;-141.84;74.73
15260;BME280;34462;51.368;12.364;2023-09-08T01:11:59;20820.00;;;-141.84;74.59
15260;BME280;34462;51.368;12.364;2023-09-08T01:14:29;20815.91;;;-141.84;74.68
15260;BME280;34462;51.368;12.364;2023-09-08T01:16:58;20809.81;;;-141.84;74.72
15260;BME280;34462;51.368;12.364;2023-09-08T01:19:26;20769.16;;;-141.84;74.55
15260;BME280;34462;51.368;12.364;2023-09-08T01:22:37;20783.41;;;-141.84;74.54
15260;BME280;34462;51.368;12.364;2023-09-08T01:25:19;20779.31;;;-141.84;74.84
15260;BME280;34462;51.368;12.364;2023-09-08T01:27:51;20738.66;;;-141.84;74.89
15260;BME280;34462;51.368;12.364;2023-09-08T01:30:23;20773.22;;;-141.84;74.64
15260;BME280;34462;51.368;12.364;2023-09-08T01:32:53;20756.97;;;-141.84;74.83
15260;BME280;34462;51.368;12.364;2023-09-08T01:35:23;20765.09;;;-141.84;75.27
15260;BME280;34462;51.368;12.364;2023-09-08T01:37:52;20759.00;;;-141.84;75.61
15260;BME280;34462;51.368;12.364;2023-09-08T01:40:21;20767.13;;;-141.84;75.17
15260;BME280;34462;51.368;12.364;2023-09-08T01:42:50;20724.44;;;-141.84;75.43
15260;BME280;34462;51.368;12.364;2023-09-08T01:45:18;20726.47;;;-141.84;75.72
15260;BME280;34462;51.368;12.364;2023-09-08T01:47:46;20714.28;;;-141.84;75.61
15260;BME280;34462;51.368;12.364;2023-09-08T01:50:14;20708.19;;;-141.84;76.07
15260;BME280;34462;51.368;12.364;2023-09-08T01:52:48;20675.66;;;-141.84;76.16
15260;BME280;34462;51.368;12.364;2023-09-08T01:55:17;20718.34;;;-141.84;76.67
15260;BME280;34462;51.368;12.364;2023-09-08T01:57:46;20702.09;;;-141.84;76.56
15260;BME280;34462;51.368;12.364;2023-09-08T02:00:15;20685.81;;;-141.84;76.51
15260;BME280;34462;51.368;12.364;2023-09-08T02:02:43;20653.28;;;-141.84;76.85
15260;BME280;34462;51.368;12.364;2023-09-08T02:05:12;20655.31;;;-141.84;76.93
15260;BME280;34462;51.368;12.364;2023-09-08T02:07:40;20637.03;;;-141.84;77.11
15260;BME280;34462;51.368;12.364;2023-09-08T02:10:09;20653.28;;;-141.84;77.03
15260;BME280;34462;51.368;12.364;2023-09-08T02:12:38;20626.88;;;-141.84;77.36
15260;BME280;34462;51.368;12.364;2023-09-08T02:15:09;20647.19;;;-141.84;77.33
15260;BME280;34462;51.368;12.364;2023-09-08T02:17:38;20614.66;;;-141.84;77.48
15260;BME280;34462;51.368;12.364;2023-09-08T02:20:07;20639.06;;;-141.84;77.59
15260;BME280;34462;51.368;12.364;2023-09-08T02:22:36;20624.84;;;-141.84;77.47
15260;BME280;34462;51.368;12.364;2023-09-08T02:25:05;20614.66;;;-141.84;77.74
15260;BME280;34462;51.368;12.364;2023-09-08T02:27:34;20598.41;;;-141.84;78.13
15260;BME280;34462;51.368;12.364;2023-09-08T02:30:04;20610.59;;;-141.84;78.98
15260;BME280;34462;51.368;12.364;2023-09-08T02:32:34;20543.53;;;-141.84;79.58
15260;BME280;34462;51.368;12.364;2023-09-08T02:35:03;20541.50;;;-141.84;80.00
15260;BME280;34462;51.368;12.364;2023-09-08T02:37:31;20561.81;;;-141.84;80.25
15260;BME280;34462;51.368;12.364;2023-09-08T02:40:01;20531.31;;;-141.84;80.45
15260;BME280;34462;51.368;12.364;2023-09-08T02:42:30;20527.25;;;-141.84;80.58
15260;BME280;34462;51.368;12.364;2023-09-08T02:44:58;20529.28;;;-141.84;80.63
15260;BME280;34462;51.368;12.364;2023-09-08T02:47:27;20504.91;;;-141.84;80.52
15260;BME280;34462;51.368;12.364;2023-09-08T02:49:56;20533.34;;;-141.84;80.60
15260;BME280;34462;51.368;12.364;2023-09-08T02:52:24;20500.84;;;-141.84;80.65
15260;BME280;34462;51.368;12.364;2023-09-08T02:54:53;20488.63;;;-141.84;80.55
15260;BME280;34462;51.368;12.364;2023-09-08T02:57:21;20508.97;;;-141.84;80.18
15260;BME280;34462;51.368;12.364;2023-09-08T02:59:50;20553.69;;;-141.84;80.19
15260;BME280;34462;51.368;12.364;2023-09-08T03:02:18;20500.84;;;-141.84;80.02
15260;BME280;34462;51.368;12.364;2023-09-08T03:04:47;20484.56;;;-141.84;80.60
15260;BME280;34462;51.368;12.364;2023-09-08T03:07:16;20464.25;;;-141.84;80.79
15260;BME280;34462;51.368;12.364;2023-09-08T03:09:45;20502.88;;;-141.84;80.76
15260;BME280;34462;51.368;12.364;2023-09-08T03:12:13;20474.41;;;-141.84;80.89
15260;BME280;34462;51.368;12.364;2023-09-08T03:14:42;20525.22;;;-141.84;80.70
15260;BME280;34462;51.368;12.364;2023-09-08T03:17:10;20496.78;;;-141.84;80.01
15260;BME280;34462;51.368;12.364;2023-09-08T03:19:39;20517.09;;;-141.84;79.47
15260;BME280;34462;51.368;12.364;2023-09-08T03:22:07;20470.34;;;-141.84;80.21
15260;BME280;34462;51.368;12.364;2023-09-08T03:24:37;20464.25;;;-141.84;80.52
15260;BME280;34462;51.368;12.364;2023-09-08T03:27:05;20437.81;;;-141.84;80.49
15260;BME280;34462;51.368;12.364;2023-09-08T03:29:33;20441.88;;;-141.84;80.62
15260;BME280;34462;51.368;12.364;2023-09-08T03:32:02;20456.13;;;-141.84;80.69
15260;BME280;34462;51.368;12.364;2023-09-08T03:34:30;20460.19;;;-141.84;80.22
15260;BME280;34462;51.368;12.364;2023-09-08T03:36:59;20441.88;;;-141.84;80.28
15260;BME280;34462;51.368;12.364;2023-09-08T03:39:27;20456.13;;;-141.84;80.28
15260;BME280;34462;51.368;12.364;2023-09-08T03:41:56;20454.09;;;-141.84;80.44
15260;BME280;34462;51.368;12.364;2023-09-08T03:44:25;20423.59;;;-141.84;80.34
15260;BME280;34462;51.368;12.364;2023-09-08T03:46:53;20486.59;;;-141.84;79.98
15260;BME280;34462;51.368;12.364;2023-09-08T03:49:21;20423.59;;;-141.84;79.63
15260;BME280;34462;51.368;12.364;2023-09-08T03:51:49;20437.81;;;-141.84;79.72
15260;BME280;34462;51.368;12.364;2023-09-08T03:54:17;20425.63;;;-141.84;79.36
15260;BME280;34462;51.368;12.364;2023-09-08T03:56:45;20472.38;;;-141.84;79.37
15260;BME280;34462;51.368;12.364;2023-09-08T03:59:15;20466.28;;;-141.84;79.22
15260;BME280;34462;51.368;12.364;2023-09-08T04:01:43;20458.16;;;-141.84;79.56
15260;BME280;34462;51.368;12.364;2023-09-08T04:04:11;20417.50;;;-141.84;79.58
15260;BME280;34462;51.368;12.364;2023-09-08T04:06:41;20433.75;;;-141.84;79.93
15260;BME280;34462;51.368;12.364;2023-09-08T04:09:09;20384.97;;;-141.84;80.35
15260;BME280;34462;51.368;12.364;2023-09-08T04:11:37;20376.84;;;-141.84;80.60
15260;BME280;34462;51.368;12.364;2023-09-08T04:14:05;20387.00;;;-141.84;80.94
15260;BME280;34462;51.368;12.364;2023-09-08T04:16:35;20417.50;;;-141.84;81.50
15260;BME280;34462;51.368;12.364;2023-09-08T04:19:03;20372.78;;;-141.84;81.91
15260;BME280;34462;51.368;12.364;2023-09-08T04:21:31;20376.84;;;-141.84;81.60
15260;BME280;34462;51.368;12.364;2023-09-08T04:23:59;20391.06;;;-141.84;82.13
15260;BME280;34462;51.368;12.364;2023-09-08T04:26:28;20334.16;;;-141.84;82.40
15260;BME280;34462;51.368;12.364;2023-09-08T04:28:56;20356.50;;;-141.84;82.72
15260;BME280;34462;51.368;12.364;2023-09-08T04:31:24;20403.25;;;-141.84;82.33
15260;BME280;34462;51.368;12.364;2023-09-08T04:33:54;20364.66;;;-141.84;82.32
15260;BME280;34462;51.368;12.364;2023-09-08T04:36:22;20348.38;;;-141.84;82.76
15260;BME280;34462;51.368;12.364;2023-09-08T04:38:51;20330.09;;;-141.84;83.04
15260;BME280;34462;51.368;12.364;2023-09-08T04:41:19;20344.31;;;-141.84;83.07
15260;BME280;34462;51.368;12.364;2023-09-08T04:43:47;20321.97;;;-141.84;82.63
15260;BME280;34462;51.368;12.364;2023-09-08T04:46:15;20372.78;;;-141.84;82.22
15260;BME280;34462;51.368;12.364;2023-09-08T04:48:43;20334.16;;;-141.84;82.41
15260;BME280;34462;51.368;12.364;2023-09-08T04:51:13;20348.38;;;-141.84;82.60
15260;BME280;34462;51.368;12.364;2023-09-08T04:53:41;20370.75;;;-141.84;82.72
15260;BME280;34462;51.368;12.364;2023-09-08T04:56:09;20305.69;;;-141.84;82.63
15260;BME280;34462;51.368;12.364;2023-09-08T04:58:37;20356.50;;;-141.84;82.33
15260;BME280;34462;51.368;12.364;2023-09-08T05:01:06;20354.47;;;-141.84;82.00
15260;BME280;34462;51.368;12.364;2023-09-08T05:03:34;20376.84;;;-141.84;80.51
15260;BME280;34462;51.368;12.364;2023-09-08T05:06:02;20384.97;;;-141.84;80.35
15260;BME280;34462;51.368;12.364;2023-09-08T05:08:32;20391.06;;;-141.84;80.40
15260;BME280;34462;51.368;12.364;2023-09-08T05:11:02;20395.13;;;-141.84;80.73
15260;BME280;34462;51.368;12.364;2023-09-08T05:13:31;20350.41;;;-141.84;80.97
15260;BME280;34462;51.368;12.364;2023-09-08T05:15:59;20380.91;;;-141.84;81.00
15260;BME280;34462;51.368;12.364;2023-09-08T05:18:38;20411.41;;;-141.84;80.83
15260;BME280;34462;51.368;12.364;2023-09-08T05:21:07;20423.59;;;-141.84;79.79
15260;BME280;34462;51.368;12.364;2023-09-08T05:23:37;20474.41;;;-141.84;79.66
15260;BME280;34462;51.368;12.364;2023-09-08T05:26:05;20486.59;;;-141.84;78.75
15260;BME280;34462;51.368;12.364;2023-09-08T05:28:33;20547.59;;;-141.84;78.41
15260;BME280;34462;51.368;12.364;2023-09-08T05:31:05;20521.16;;;-141.84;77.85
15260;BME280;34462;51.368;12.364;2023-09-08T05:33:33;20547.59;;;-141.84;77.12
15260;BME280;34462;51.368;12.364;2023-09-08T05:36:02;20592.31;;;-141.84;76.51
15260;BME280;34462;51.368;12.364;2023-09-08T05:38:30;20624.84;;;-141.84;75.55
15260;BME280;34462;51.368;12.364;2023-09-08T05:41:00;20628.91;;;-141.84;74.84
15260;BME280;34462;51.368;12.364;2023-09-08T05:43:29;20675.66;;;-141.84;74.30
15260;BME280;34462;51.368;12.364;2023-09-08T05:45:58;20693.94;;;-141.84;73.87
15260;BME280;34462;51.368;12.364;2023-09-08T05:48:27;20712.25;;;-141.84;73.14
15260;BME280;34462;51.368;12.364;2023-09-08T05:50:55;20748.84;;;-141.84;72.63
15260;BME280;34462;51.368;12.364;2023-09-08T05:53:23;20744.78;;;-141.84;72.24
15260;BME280;34462;51.368;12.364;2023-09-08T05:55:52;20763.06;;;-141.84;71.81
15260;BME280;34462;51.368;12.364;2023-09-08T05:58:21;20775.25;;;-141.84;71.47
15260;BME280;34462;51.368;12.364;2023-09-08T06:00:51;20809.81;;;-141.84;71.48
15260;BME280;34462;51.368;12.364;2023-09-08T06:03:19;20828.13;;;-141.84;71.20
15260;BME280;34462;51.368;12.364;2023-09-08T06:05:48;20805.75;;;-141.84;71.01
15260;BME280;34462;51.368;12.364;2023-09-08T06:08:16;20791.53;;;-141.84;70.57
15260;BME280;34462;51.368;12.364;2023-09-08T06:10:44;20870.81;;;-141.84;70.12
15260;BME280;34462;51.368;12.364;2023-09-08T06:13:12;20895.19;;;-141.84;70.02
15260;BME280;34462;51.368;12.364;2023-09-08T06:15:42;20907.41;;;-141.84;70.01
15260;BME280;34462;51.368;12.364;2023-09-08T06:18:11;20870.81;;;-141.84;70.11
15260;BME280;34462;51.368;12.364;2023-09-08T06:20:45;20948.06;;;-141.84;69.62
15260;BME280;34462;51.368;12.364;2023-09-08T06:23:14;20937.91;;;-141.84;69.29
15260;BME280;34462;51.368;12.364;2023-09-08T06:25:42;20946.03;;;-141.84;69.24
15260;BME280;34462;51.368;12.364;2023-09-08T06:28:10;20952.13;;;-141.84;69.27
15260;BME280;34462;51.368;12.364;2023-09-08T06:30:38;20964.31;;;-141.84;69.52
15260;BME280;34462;51.368;12.364;2023-09-08T06:33:10;20964.31;;;-141.84;69.50
15260;BME280;34462;51.368;12.364;2023-09-08T06:35:38;20984.66;;;-141.84;68.89
15260;BME280;34462;51.368;12.364;2023-09-08T06:38:06;20927.72;;;-141.84;68.64
15260;BME280;34462;51.368;12.364;2023-09-08T06:40:35;20976.53;;;-141.84;67.82
15260;BME280;34462;51.368;12.364;2023-09-08T06:43:04;21021.25;;;-141.84;67.75
15260;BME280;34462;51.368;12.364;2023-09-08T06:45:32;21027.34;;;-141.84;67.95
15260;BME280;34462;51.368;12.364;2023-09-08T06:48:00;21025.31;;;-141.84;67.82
15260;BME280;34462;51.368;12.364;2023-09-08T06:50:30;21055.81;;;-141.84;67.23
15260;BME280;34462;51.368;12.364;2023-09-08T06:52:58;21037.50;;;-141.84;67.95
15260;BME280;34462;51.368;12.364;2023-09-08T06:55:27;21057.84;;;-141.84;67.61
15260;BME280;34462;51.368;12.364;2023-09-08T06:57:57;21094.44;;;-141.84;67.42
15260;BME280;34462;51.368;12.364;2023-09-08T07:00:25;21116.78;;;-141.84;66.89
15260;BME280;34462;51.368;12.364;2023-09-08T07:02:53;21108.66;;;-141.84;67.10
15260;BME280;34462;51.368;12.364;2023-09-08T07:05:22;21108.66;;;-141.84;66.58
15260;BME280;34462;51.368;12.364;2023-09-08T07:07:51;21232.69;;;-141.84;65.93
15260;BME280;34462;51.368;12.364;2023-09-08T07:10:20;21305.88;;;-141.84;65.16
15260;BME280;34462;51.368;12.364;2023-09-08T07:12:48;21305.88;;;-141.84;63.78
15260;BME280;34462;51.368;12.364;2023-09-08T07:15:16;21277.41;;;-141.84;63.89
15260;BME280;34462;51.368;12.364;2023-09-08T07:17:44;21305.88;;;-141.84;64.07
15260;BME280;34462;51.368;12.364;2023-09-08T07:20:13;21356.69;;;-141.84;62.82
15260;BME280;34462;51.368;12.364;2023-09-08T07:22:41;21332.31;;;-141.84;63.59
15260;BME280;34462;51.368;12.364;2023-09-08T07:25:10;21405.50;;;-141.84;63.77
15260;BME280;34462;51.368;12.364;2023-09-08T07:27:39;21370.94;;;-141.84;63.75
15260;BME280;34462;51.368;12.364;2023-09-08T07:30:08;21362.81;;;-141.84;63.84
15260;BME280;34462;51.368;12.364;2023-09-08T07:32:36;21393.31;;;-141.84;63.64
15260;BME280;34462;51.368;12.364;2023-09-08T07:35:05;21381.09;;;-141.84;63.75
15260;BME280;34462;51.368;12.364;2023-09-08T07:37:41;21399.41;;;-141.84;62.98
15260;BME280;34462;51.368;12.364;2023-09-08T07:40:11;21462.44;;;-141.84;63.03
15260;BME280;34462;51.368;12.364;2023-09-08T07:42:39;21468.53;;;-141.84;62.15
15260;BME280;34462;51.368;12.364;2023-09-08T07:45:08;21462.44;;;-141.84;62.09
15260;BME280;34462;51.368;12.364;2023-09-08T07:47:37;21480.72;;;-141.84;62.86
15260;BME280;34462;51.368;12.364;2023-09-08T07:50:22;21488.88;;;-141.84;62.82
15260;BME280;34462;51.368;12.364;2023-09-08T07:52:51;21505.13;;;-141.84;62.21
15260;BME280;34462;51.368;12.364;2023-09-08T07:55:22;21525.47;;;-141.84;62.31
15260;BME280;34462;51.368;12.364;2023-09-08T07:57:55;21582.38;;;-141.84;61.65
15260;BME280;34462;51.368;12.364;2023-09-08T08:00:24;21590.53;;;-141.84;62.01
15260;BME280;34462;51.368;12.364;2023-09-08T08:02:55;21604.75;;;-141.84;61.34
15260;BME280;34462;51.368;12.364;2023-09-08T08:05:24;21680.00;;;-141.84;59.63
15260;BME280;34462;51.368;12.364;2023-09-08T08:07:53;21659.66;;;-141.84;60.24
15260;BME280;34462;51.368;12.364;2023-09-08T08:10:22;21732.84;;;-141.84;59.86
15260;BME280;34462;51.368;12.364;2023-09-08T08:12:50;21696.25;;;-141.84;60.02
15260;BME280;34462;51.368;12.364;2023-09-08T08:15:20;21710.50;;;-141.84;60.14
15260;BME280;34462;51.368;12.364;2023-09-08T08:17:49;21749.13;;;-141.84;59.11
15260;BME280;34462;51.368;12.364;2023-09-08T08:20:17;21771.50;;;-141.84;59.63
15260;BME280;34462;51.368;12.364;2023-09-08T08:22:46;21775.56;;;-141.84;59.50
15260;BME280;34462;51.368;12.364;2023-09-08T08:25:15;21789.78;;;-141.84;59.12
15260;BME280;34462;51.368;12.364;2023-09-08T08:27:44;21791.81;;;-141.84;58.93
15260;BME280;34462;51.368;12.364;2023-09-08T08:30:13;21844.69;;;-141.84;58.02
15260;BME280;34462;51.368;12.364;2023-09-08T08:32:41;21905.69;;;-141.84;57.83
15260;BME280;34462;51.368;12.364;2023-09-08T08:35:09;21905.69;;;-141.84;57.43
15260;BME280;34462;51.368;12.364;2023-09-08T08:37:40;21976.88;;;-141.84;57.03
15260;BME280;34462;51.368;12.364;2023-09-08T08:40:10;21962.63;;;-141.84;57.05
15260;BME280;34462;51.368;12.364;2023-09-08T08:42:40;21985.00;;;-141.84;56.57
15260;BME280;34462;51.368;12.364;2023-09-08T08:45:11;22003.31;;;-141.84;56.56
15260;BME280;34462;51.368;12.364;2023-09-08T08:47:40;21997.19;;;-141.84;56.91
15260;BME280;34462;51.368;12.364;2023-09-08T08:50:10;22084.66;;;-141.84;55.92
15260;BME280;34462;51.368;12.364;2023-09-08T08:52:40;22090.75;;;-141.84;55.81
15260;BME280;34462;51.368;12.364;2023-09-08T08:55:09;22064.31;;;-141.84;55.83
15260;BME280;34462;51.368;12.364;2023-09-08T08:57:39;22052.09;;;-141.84;55.45
15260;BME280;34462;51.368;12.364;2023-09-08T09:00:11;22139.56;;;-141.84;55.39
15260;BME280;34462;51.368;12.364;2023-09-08T09:02:41;22147.69;;;-141.84;55.48
15260;BME280;34462;51.368;12.364;2023-09-08T09:05:13;22137.50;;;-141.84;55.02
15260;BME280;34462;51.368;12.364;2023-09-08T09:07:42;22184.28;;;-141.84;54.05
15260;BME280;34462;51.368;12.364;2023-09-08T09:10:11;22196.50;;;-141.84;54.51
15260;BME280;34462;51.368;12.364;2023-09-08T09:12:39;22218.84;;;-141.84;54.06
15260;BME280;34462;51.368;12.364;2023-09-08T09:15:10;22277.84;;;-141.84;53.58
15260;BME280;34462;51.368;12.364;2023-09-08T09:17:38;22310.38;;;-141.84;52.04
15260;BME280;34462;51.368;12.364;2023-09-08T09:20:14;22344.94;;;-141.84;51.49
15260;BME280;34462;51.368;12.364;2023-09-08T09:22:44;22357.16;;;-141.84;50.77
15260;BME280;34462;51.368;12.364;2023-09-08T09:25:22;22405.97;;;-141.84;50.38
15260;BME280;34462;51.368;12.364;2023-09-08T09:27:55;22399.84;;;-141.84;50.83
15260;BME280;34462;51.368;12.364;2023-09-08T09:30:26;22438.50;;;-141.84;50.85
15260;BME280;34462;51.368;12.364;2023-09-08T09:33:04;22499.50;;;-141.84;49.85
15260;BME280;34462;51.368;12.364;2023-09-08T09:35:43;22471.03;;;-141.84;49.75
15260;BME280;34462;51.368;12.364;2023-09-08T09:38:13;22481.22;;;-141.84;49.07
15260;BME280;34462;51.368;12.364;2023-09-08T09:40:41;22497.47;;;-141.84;49.38
15260;BME280;34462;51.368;12.364;2023-09-08T09:43:11;22525.94;;;-141.84;49.80
15260;BME280;34462;51.368;12.364;2023-09-08T09:45:42;22615.44;;;-141.84;48.74
15260;BME280;34462;51.368;12.364;2023-09-08T09:48:11;22617.47;;;-141.84;48.69
15260;BME280;34462;51.368;12.364;2023-09-08T09:50:41;22597.13;;;-141.84;48.88
15260;BME280;34462;51.368;12.364;2023-09-08T09:53:11;22589.00;;;-141.84;48.22
15260;BME280;34462;51.368;12.364;2023-09-08T09:55:42;22684.59;;;-141.84;47.43
15260;BME280;34462;51.368;12.364;2023-09-08T09:58:11;22639.84;;;-141.84;47.74
15260;BME280;34462;51.368;12.364;2023-09-08T10:00:43;22613.41;;;-141.84;47.89
15260;BME280;34462;51.368;12.364;2023-09-08T10:03:16;22731.38;;;-141.84;47.27
15260;BME280;34462;51.368;12.364;2023-09-08T10:05:47;22727.28;;;-141.84;47.50
15260;BME280;34462;51.368;12.364;2023-09-08T10:08:16;22713.06;;;-141.84;46.98
15260;BME280;34462;51.368;12.364;2023-09-08T10:10:46;22741.53;;;-141.84;46.92
15260;BME280;34462;51.368;12.364;2023-09-08T10:13:24;22723.22;;;-141.84;46.57
15260;BME280;34462;51.368;12.364;2023-09-08T10:15:58;22778.16;;;-141.84;46.51
15260;BME280;34462;51.368;12.364;2023-09-08T10:18:28;22784.25;;;-141.84;45.66
15260;BME280;34462;51.368;12.364;2023-09-08T10:21:03;22806.63;;;-141.84;45.71
15260;BME280;34462;51.368;12.364;2023-09-08T10:23:37;22843.22;;;-141.84;45.20
15260;BME280;34462;51.368;12.364;2023-09-08T10:26:10;22839.16;;;-141.84;44.86
15260;BME280;34462;51.368;12.364;2023-09-08T10:28:39;22857.47;;;-141.84;44.61
15260;BME280;34462;51.368;12.364;2023-09-08T10:31:10;22885.94;;;-141.84;44.42
15260;BME280;34462;51.368;12.364;2023-09-08T10:33:43;22914.41;;;-141.84;44.01
15260;BME280;34462;51.368;12.364;2023-09-08T10:36:12;22918.50;;;-141.84;43.38
15260;BME280;34462;51.368;12.364;2023-09-08T10:38:41;22944.94;;;-141.84;43.52
15260;BME280;34462;51.368;12.364;2023-09-08T10:41:28;23007.97;;;-141.84;42.85
15260;BME280;34462;51.368;12.364;2023-09-08T10:44:03;22983.56;;;-141.84;44.00
15260;BME280;34462;51.368;12.364;2023-09-08T10:46:36;22985.59;;;-141.84;44.13
15260;BME280;34462;51.368;12.364;2023-09-08T10:49:06;23050.69;;;-141.84;43.42
15260;BME280;34462;51.368;12.364;2023-09-08T10:51:37;23168.69;;;-141.84;41.88
15260;BME280;34462;51.368;12.364;2023-09-08T10:54:06;23199.19;;;-141.84;41.36
15260;BME280;34462;51.368;12.364;2023-09-08T10:56:54;23182.91;;;-141.84;41.36
15260;BME280;34462;51.368;12.364;2023-09-08T10:59:28;23164.59;;;-141.84;41.10
15260;BME280;34462;51.368;12.364;2023-09-08T11:01:58;23160.53;;;-141.84;41.25
15260;BME280;34462;51.368;12.364;2023-09-08T11:04:27;23146.28;;;-141.84;41.63
15260;BME280;34462;51.368;12.364;2023-09-08T11:06:56;23125.97;;;-141.84;41.57
15260;BME280;34462;51.368;12.364;2023-09-08T11:09:25;23101.53;;;-141.84;41.40
15260;BME280;34462;51.368;12.364;2023-09-08T11:11:53;23066.97;;;-141.84;41.86
15260;BME280;34462;51.368;12.364;2023-09-08T11:14:22;23107.66;;;-141.84;41.87
15260;BME280;34462;51.368;12.364;2023-09-08T11:16:52;23113.75;;;-141.84;41.30
15260;BME280;34462;51.368;12.364;2023-09-08T11:19:21;23182.91;;;-141.84;40.94
15260;BME280;34462;51.368;12.364;2023-09-08T11:21:49;23156.47;;;-141.84;41.50
15260;BME280;34462;51.368;12.364;2023-09-08T11:24:18;23184.94;;;-141.84;40.81
15260;BME280;34462;51.368;12.364;2023-09-08T11:26:46;23182.91;;;-141.84;40.77
15260;BME280;34462;51.368;12.364;2023-09-08T11:29:17;23252.06;;;-141.84;40.76
15260;BME280;34462;51.368;12.364;2023-09-08T11:31:52;23268.34;;;-141.84;40.78
15260;BME280;34462;51.368;12.364;2023-09-08T11:34:22;23241.91;;;-141.84;40.17
15260;BME280;34462;51.368;12.364;2023-09-08T11:36:50;23235.81;;;-141.84;40.27
15260;BME280;34462;51.368;12.364;2023-09-08T11:39:23;23254.09;;;-141.84;39.77
15260;BME280;34462;51.368;12.364;2023-09-08T11:41:52;23286.66;;;-141.84;39.66
15260;BME280;34462;51.368;12.364;2023-09-08T11:44:21;23294.78;;;-141.84;39.13
15260;BME280;34462;51.368;12.364;2023-09-08T11:46:50;23270.38;;;-141.84;39.28
15260;BME280;34462;51.368;12.364;2023-09-08T11:49:19;23319.19;;;-141.84;39.58
15260;BME280;34462;51.368;12.364;2023-09-08T11:51:51;23288.69;;;-141.84;40.12
15260;BME280;34462;51.368;12.364;2023-09-08T11:54:20;23292.75;;;-141.84;39.24
15260;BME280;34462;51.368;12.364;2023-09-08T11:56:48;23333.44;;;-141.84;38.72
15260;BME280;34462;51.368;12.364;2023-09-08T11:59:17;23321.22;;;-141.84;38.92
15260;BME280;34462;51.368;12.364;2023-09-08T12:01:46;23390.41;;;-141.84;38.28
15260;BME280;34462;51.368;12.364;2023-09-08T12:04:17;23368.03;;;-141.84;38.26
15260;BME280;34462;51.368;12.364;2023-09-08T12:06:48;23363.94;;;-141.84;38.34
15260;BME280;34462;51.368;12.364;2023-09-08T12:09:20;23345.66;;;-141.84;38.35
15260;BME280;34462;51.368;12.364;2023-09-08T12:11:49;23363.94;;;-141.84;37.86
15260;BME280;34462;51.368;12.364;2023-09-08T12:14:17;23435.16;;;-141.84;37.70
15260;BME280;34462;51.368;12.364;2023-09-08T12:16:45;23439.22;;;-141.84;38.72
15260;BME280;34462;51.368;12.364;2023-09-08T12:19:29;23410.75;;;-141.84;38.22
15260;BME280;34462;51.368;12.364;2023-09-08T12:22:01;23461.59;;;-141.84;37.57
15260;BME280;34462;51.368;12.364;2023-09-08T12:24:57;23414.81;;;-141.84;37.36
15260;BME280;34462;51.368;12.364;2023-09-08T12:27:26;23467.69;;;-141.84;37.83
15260;BME280;34462;51.368;12.364;2023-09-08T12:29:56;23435.16;;;-141.84;37.44
15260;BME280;34462;51.368;12.364;2023-09-08T12:32:25;23471.78;;;-141.84;37.16
15260;BME280;34462;51.368;12.364;2023-09-08T12:34:54;23418.88;;;-141.84;37.59
15260;BME280;34462;51.368;12.364;2023-09-08T12:37:24;23465.66;;;-141.84;37.12
15260;BME280;34462;51.368;12.364;2023-09-08T12:39:56;23459.56;;;-141.84;36.99
15260;BME280;34462;51.368;12.364;2023-09-08T12:42:24;23542.97;;;-141.84;36.37